createdAt,value
2017-10-31T00:00:50.407Z,3.50
2017-10-31T00:01:50.495Z,3.50
2017-10-31T00:02:00.115Z,3.90
2017-10-31T00:02:50.432Z,3.40
2017-10-31T00:03:50.533Z,3.50
2017-10-31T00:04:30.602Z,4.30
2017-10-31T00:04:50.435Z,4.20
2017-10-31T00:05:50.522Z,3.20
2017-10-31T00:06:50.444Z,3.50
2017-10-31T00:07:04.912Z,4.37
2017-10-31T00:07:50.545Z,3.60
2017-10-31T00:08:50.456Z,3.80
2017-10-31T00:09:35.874Z,5.50
2017-10-31T00:09:50.566Z,3.80
2017-10-31T00:10:50.471Z,3.60
2017-10-31T00:11:50.585Z,3.40
2017-10-31T00:12:05.911Z,5.00
2017-10-31T00:12:50.473Z,3.40
2017-10-31T00:13:50.584Z,3.80
2017-10-31T00:14:35.263Z,4.40
2017-10-31T00:14:50.486Z,3.80
2017-10-31T00:15:50.607Z,3.60
2017-10-31T00:16:50.507Z,3.80
2017-10-31T00:17:06.337Z,4.10
2017-10-31T00:17:50.612Z,3.50
2017-10-31T00:18:50.575Z,3.50
2017-10-31T00:19:39.668Z,4.43
2017-10-31T00:19:50.657Z,3.90
2017-10-31T00:20:50.527Z,3.30
2017-10-31T00:21:50.674Z,3.60
2017-10-31T00:22:10.501Z,4.23
2017-10-31T00:22:50.553Z,3.60
2017-10-31T00:23:50.675Z,3.30
2017-10-31T00:24:42.719Z,4.53
2017-10-31T00:24:50.550Z,3.10
2017-10-31T00:25:50.670Z,3.50
2017-10-31T00:26:50.556Z,3.70
2017-10-31T00:27:15.803Z,4.23
2017-10-31T00:27:50.687Z,3.20
2017-10-31T00:28:50.580Z,3.60
2017-10-31T00:29:44.234Z,4.50
2017-10-31T00:29:50.702Z,3.30
2017-10-31T00:30:50.602Z,3.90
2017-10-31T00:31:50.725Z,3.50
2017-10-31T00:32:12.559Z,4.17
2017-10-31T00:32:50.937Z,3.80
2017-10-31T00:33:50.738Z,3.70
2017-10-31T00:34:43.807Z,4.57
2017-10-31T00:34:50.591Z,3.70
2017-10-31T00:35:50.741Z,3.30
2017-10-31T00:36:50.608Z,4.20
2017-10-31T00:37:11.384Z,4.77
2017-10-31T00:37:50.753Z,3.90
2017-10-31T00:38:50.611Z,3.70
2017-10-31T00:39:42.068Z,4.67
2017-10-31T00:39:50.764Z,3.30
2017-10-31T00:40:50.626Z,3.50
2017-10-31T00:41:50.779Z,3.60
2017-10-31T00:42:14.005Z,5.20
2017-10-31T00:42:50.635Z,3.80
2017-10-31T00:43:50.793Z,3.50
2017-10-31T00:44:43.650Z,5.40
2017-10-31T00:44:50.650Z,3.60
2017-10-31T00:45:50.805Z,3.80
2017-10-31T00:46:50.662Z,3.90
2017-10-31T00:47:13.152Z,4.47
2017-10-31T00:47:50.825Z,3.80
2017-10-31T00:48:50.677Z,4.00
2017-10-31T00:49:42.093Z,4.10
2017-10-31T00:49:50.838Z,3.50
2017-10-31T00:50:50.672Z,3.70
2017-10-31T00:51:50.850Z,3.40
2017-10-31T00:52:12.820Z,4.57
2017-10-31T00:52:50.687Z,3.20
2017-10-31T00:53:50.862Z,3.10
2017-10-31T00:54:43.543Z,4.70
2017-10-31T00:54:50.697Z,3.40
2017-10-31T00:55:50.985Z,3.40
2017-10-31T00:56:50.708Z,3.40
2017-10-31T00:57:14.185Z,4.53
2017-10-31T00:57:52.779Z,3.30
2017-10-31T00:58:52.072Z,3.40
2017-10-31T00:59:50.476Z,4.47
2017-10-31T00:59:51.857Z,3.60
2017-10-31T01:00:50.911Z,3.10
2017-10-31T01:01:50.760Z,3.10
2017-10-31T01:02:18.740Z,4.80
2017-10-31T01:02:50.745Z,3.10
2017-10-31T01:03:50.889Z,3.00
2017-10-31T01:04:50.756Z,3.20
2017-10-31T01:05:50.787Z,3.00
2017-10-31T01:06:50.799Z,3.10
2017-10-31T01:07:39.376Z,4.73
2017-10-31T01:07:50.797Z,2.80
2017-10-31T01:08:50.775Z,3.30
2017-10-31T01:09:50.813Z,3.50
2017-10-31T01:10:11.967Z,5.17
2017-10-31T01:10:50.785Z,3.70
2017-10-31T01:11:50.828Z,3.30
2017-10-31T01:12:43.137Z,4.83
2017-10-31T01:12:50.805Z,3.50
2017-10-31T01:13:50.941Z,3.60
2017-10-31T01:14:50.799Z,3.50
2017-10-31T01:15:13.457Z,4.80
2017-10-31T01:15:50.955Z,3.50
2017-10-31T01:16:50.816Z,3.10
2017-10-31T01:17:42.595Z,4.90
2017-10-31T01:17:50.865Z,3.20
2017-10-31T01:18:50.824Z,3.30
2017-10-31T01:19:50.878Z,3.20
2017-10-31T01:20:13.365Z,4.50
2017-10-31T01:20:50.837Z,3.50
2017-10-31T01:21:50.892Z,3.00
2017-10-31T01:22:41.796Z,5.03
2017-10-31T01:22:50.842Z,3.20
2017-10-31T01:23:50.907Z,3.20
2017-10-31T01:24:50.861Z,3.70
2017-10-31T01:25:12.920Z,5.50
2017-10-31T01:25:50.922Z,3.20
2017-10-31T01:26:50.869Z,3.30
2017-10-31T01:27:41.811Z,5.10
2017-10-31T01:27:50.934Z,4.10
2017-10-31T01:28:50.878Z,3.70
2017-10-31T01:29:50.950Z,3.40
2017-10-31T01:30:13.310Z,4.33
2017-10-31T01:30:50.884Z,3.10
2017-10-31T01:31:50.961Z,3.20
2017-10-31T01:32:42.977Z,4.93
2017-10-31T01:32:50.898Z,3.40
2017-10-31T01:33:50.975Z,3.50
2017-10-31T01:34:50.908Z,3.20
2017-10-31T01:35:12.994Z,5.30
2017-10-31T01:35:50.991Z,3.20
2017-10-31T01:36:50.922Z,3.30
2017-10-31T01:37:43.153Z,5.10
2017-10-31T01:37:51.006Z,3.30
2017-10-31T01:38:50.926Z,3.20
2017-10-31T01:39:51.014Z,3.40
2017-10-31T01:40:13.308Z,4.70
2017-10-31T01:40:50.956Z,2.90
2017-10-31T01:41:51.029Z,3.20
2017-10-31T01:42:44.653Z,5.13
2017-10-31T01:42:50.953Z,2.70
2017-10-31T01:43:51.041Z,3.30
2017-10-31T01:44:50.964Z,3.00
2017-10-31T01:45:16.199Z,4.63
2017-10-31T01:45:51.062Z,3.10
2017-10-31T01:46:50.980Z,3.20
2017-10-31T01:47:44.878Z,4.63
2017-10-31T01:47:51.072Z,3.20
2017-10-31T01:48:50.981Z,3.50
2017-10-31T01:49:51.085Z,3.20
2017-10-31T01:50:12.685Z,4.70
2017-10-31T01:50:50.988Z,2.80
2017-10-31T01:51:51.102Z,3.10
2017-10-31T01:52:43.683Z,5.23
2017-10-31T01:52:51.000Z,3.40
2017-10-31T01:53:51.112Z,3.30
2017-10-31T01:54:51.030Z,3.20
2017-10-31T01:55:13.053Z,5.47
2017-10-31T01:55:51.123Z,3.20
2017-10-31T01:56:51.019Z,3.10
2017-10-31T01:57:44.693Z,4.67
2017-10-31T01:57:51.138Z,2.90
2017-10-31T01:58:51.040Z,3.40
2017-10-31T01:59:51.153Z,3.50
2017-10-31T02:00:12.441Z,4.70
2017-10-31T02:00:51.074Z,3.10
2017-10-31T02:01:51.167Z,3.10
2017-10-31T02:02:42.419Z,5.00
2017-10-31T02:02:51.058Z,3.00
2017-10-31T02:03:51.184Z,3.20
2017-10-31T02:04:51.059Z,3.40
2017-10-31T02:05:10.741Z,4.93
2017-10-31T02:05:51.192Z,2.90
2017-10-31T02:06:51.070Z,3.20
2017-10-31T02:07:40.431Z,5.40
2017-10-31T02:07:51.204Z,3.30
2017-10-31T02:08:51.085Z,3.40
2017-10-31T02:09:51.222Z,3.40
2017-10-31T02:10:08.561Z,4.43
2017-10-31T02:10:51.095Z,3.30
2017-10-31T02:11:51.230Z,3.60
2017-10-31T02:12:37.427Z,5.23
2017-10-31T02:12:51.095Z,3.50
2017-10-31T02:13:51.248Z,3.80
2017-10-31T02:14:51.112Z,3.30
2017-10-31T02:15:05.558Z,5.53
2017-10-31T02:15:51.259Z,3.20
2017-10-31T02:16:51.123Z,3.30
2017-10-31T02:17:34.617Z,5.33
2017-10-31T02:17:51.273Z,3.10
2017-10-31T02:18:51.138Z,3.00
2017-10-31T02:19:51.285Z,3.20
2017-10-31T02:20:02.768Z,5.00
2017-10-31T02:20:51.144Z,3.60
2017-10-31T02:21:51.195Z,3.00
2017-10-31T02:22:33.830Z,4.90
2017-10-31T02:22:51.153Z,3.40
2017-10-31T02:23:51.210Z,3.00
2017-10-31T02:24:51.160Z,3.10
2017-10-31T02:25:02.638Z,5.23
2017-10-31T02:25:51.226Z,3.20
2017-10-31T02:26:51.171Z,3.30
2017-10-31T02:27:30.722Z,5.00
2017-10-31T02:27:51.235Z,3.00
2017-10-31T02:28:51.184Z,3.20
2017-10-31T02:29:51.268Z,3.30
2017-10-31T02:29:59.157Z,5.17
2017-10-31T02:30:51.197Z,2.90
2017-10-31T02:31:51.276Z,3.40
2017-10-31T02:32:30.640Z,4.90
2017-10-31T02:32:51.208Z,3.40
2017-10-31T02:33:51.292Z,3.50
2017-10-31T02:34:51.227Z,3.80
2017-10-31T02:35:00.244Z,5.27
2017-10-31T02:35:51.301Z,3.40
2017-10-31T02:36:51.233Z,3.70
2017-10-31T02:37:29.984Z,5.00
2017-10-31T02:37:51.313Z,3.50
2017-10-31T02:38:51.235Z,3.50
2017-10-31T02:39:51.334Z,3.30
2017-10-31T02:39:58.851Z,5.13
2017-10-31T02:40:51.243Z,3.30
2017-10-31T02:41:51.342Z,3.00
2017-10-31T02:42:27.861Z,5.40
2017-10-31T02:42:51.258Z,3.20
2017-10-31T02:43:51.358Z,3.30
2017-10-31T02:44:51.264Z,3.20
2017-10-31T02:44:57.460Z,4.90
2017-10-31T02:45:51.362Z,3.40
2017-10-31T02:46:51.273Z,3.50
2017-10-31T02:47:26.340Z,5.00
2017-10-31T02:47:51.378Z,3.40
2017-10-31T02:48:51.286Z,3.10
2017-10-31T02:49:51.384Z,3.30
2017-10-31T02:49:57.102Z,5.40
2017-10-31T02:50:51.298Z,3.40
2017-10-31T02:51:51.402Z,3.60
2017-10-31T02:52:25.658Z,4.80
2017-10-31T02:52:51.316Z,3.70
2017-10-31T02:53:51.433Z,4.00
2017-10-31T02:54:51.321Z,3.70
2017-10-31T02:54:53.931Z,4.87
2017-10-31T02:55:51.437Z,3.70
2017-10-31T02:56:51.325Z,3.60
2017-10-31T02:57:23.601Z,5.40
2017-10-31T02:57:51.445Z,3.60
2017-10-31T02:58:51.334Z,3.50
2017-10-31T02:59:51.461Z,3.70
2017-10-31T02:59:52.750Z,5.20
2017-10-31T03:00:51.350Z,4.10
2017-10-31T03:01:51.574Z,3.60
2017-10-31T03:02:21.955Z,7.20
2017-10-31T03:02:51.376Z,4.10
2017-10-31T03:03:51.446Z,3.90
2017-10-31T03:04:49.551Z,5.20
2017-10-31T03:04:51.364Z,3.70
2017-10-31T03:05:51.483Z,4.10
2017-10-31T03:06:51.379Z,3.90
2017-10-31T03:07:17.231Z,5.30
2017-10-31T03:07:51.480Z,3.60
2017-10-31T03:08:51.404Z,3.30
2017-10-31T03:09:48.286Z,4.87
2017-10-31T03:09:51.494Z,3.20
2017-10-31T03:10:51.408Z,3.50
2017-10-31T03:11:51.518Z,3.50
2017-10-31T03:12:17.340Z,5.37
2017-10-31T03:12:51.418Z,3.80
2017-10-31T03:13:51.516Z,3.90
2017-10-31T03:14:45.736Z,5.33
2017-10-31T03:14:51.420Z,3.80
2017-10-31T03:15:52.556Z,3.60
2017-10-31T03:16:51.428Z,3.50
2017-10-31T03:17:14.081Z,4.70
2017-10-31T03:17:53.500Z,3.80
2017-10-31T03:18:51.432Z,3.70
2017-10-31T03:19:42.097Z,5.47
2017-10-31T03:19:52.481Z,3.50
2017-10-31T03:20:51.450Z,4.00
2017-10-31T03:21:51.578Z,3.70
2017-10-31T03:22:10.050Z,5.17
2017-10-31T03:22:51.458Z,3.60
2017-10-31T03:23:51.588Z,3.50
2017-10-31T03:24:38.256Z,5.27
2017-10-31T03:24:51.465Z,4.20
2017-10-31T03:25:51.600Z,3.90
2017-10-31T03:26:51.482Z,3.80
2017-10-31T03:27:06.024Z,5.00
2017-10-31T03:27:51.617Z,3.40
2017-10-31T03:28:51.486Z,4.00
2017-10-31T03:29:34.132Z,5.40
2017-10-31T03:29:51.631Z,3.60
2017-10-31T03:30:51.504Z,3.80
2017-10-31T03:31:51.647Z,3.80
2017-10-31T03:32:01.887Z,5.13
2017-10-31T03:32:51.509Z,4.00
2017-10-31T03:33:51.657Z,3.70
2017-10-31T03:34:32.745Z,5.57
2017-10-31T03:34:51.538Z,3.80
2017-10-31T03:35:51.568Z,3.40
2017-10-31T03:36:51.536Z,4.00
2017-10-31T03:37:03.674Z,5.40
2017-10-31T03:37:51.584Z,3.70
2017-10-31T03:38:51.537Z,4.10
2017-10-31T03:39:33.255Z,5.47
2017-10-31T03:39:51.603Z,4.50
2017-10-31T03:40:51.572Z,3.50
2017-10-31T03:41:51.622Z,4.20
2017-10-31T03:42:01.976Z,5.77
2017-10-31T03:42:51.571Z,3.80
2017-10-31T03:43:51.624Z,4.20
2017-10-31T03:44:34.880Z,5.67
2017-10-31T03:44:51.574Z,4.00
2017-10-31T03:45:51.636Z,3.70
2017-10-31T03:46:51.558Z,3.70
2017-10-31T03:47:10.873Z,5.87
2017-10-31T03:47:51.648Z,3.90
2017-10-31T03:48:51.582Z,3.60
2017-10-31T03:49:46.791Z,5.53
2017-10-31T03:49:51.665Z,4.00
2017-10-31T03:50:51.593Z,3.50
2017-10-31T03:51:51.673Z,4.10
2017-10-31T03:52:16.921Z,5.27
2017-10-31T03:52:51.607Z,4.00
2017-10-31T03:53:52.714Z,4.20
2017-10-31T03:54:46.887Z,6.10
2017-10-31T03:54:51.617Z,3.90
2017-10-31T03:55:52.721Z,4.30
2017-10-31T03:56:51.624Z,4.70
2017-10-31T03:57:17.731Z,5.70
2017-10-31T03:57:58.372Z,4.30
2017-10-31T03:58:51.641Z,3.90
2017-10-31T03:59:48.432Z,5.07
2017-10-31T03:59:51.728Z,4.10
2017-10-31T04:00:51.640Z,4.10
2017-10-31T04:01:51.739Z,3.90
2017-10-31T04:02:24.337Z,5.00
2017-10-31T04:02:51.652Z,3.90
2017-10-31T04:03:51.756Z,4.30
2017-10-31T04:04:51.668Z,4.10
2017-10-31T04:04:53.359Z,5.10
2017-10-31T04:05:51.768Z,3.60
2017-10-31T04:06:51.680Z,4.00
2017-10-31T04:07:23.415Z,4.60
2017-10-31T04:07:53.238Z,4.60
2017-10-31T04:08:51.686Z,3.90
2017-10-31T04:09:51.761Z,3.80
2017-10-31T04:09:53.570Z,5.33
2017-10-31T04:10:51.694Z,3.80
2017-10-31T04:11:51.696Z,3.80
2017-10-31T04:12:24.660Z,5.60
2017-10-31T04:12:51.707Z,3.50
2017-10-31T04:13:51.713Z,3.70
2017-10-31T04:14:51.708Z,3.70
2017-10-31T04:14:52.651Z,5.93
2017-10-31T04:15:51.743Z,3.70
2017-10-31T04:16:51.726Z,3.90
2017-10-31T04:17:21.099Z,5.10
2017-10-31T04:17:51.726Z,4.00
2017-10-31T04:18:51.824Z,3.90
2017-10-31T04:19:49.672Z,5.20
2017-10-31T04:19:51.746Z,4.20
2017-10-31T04:20:51.836Z,3.70
2017-10-31T04:21:51.747Z,4.30
2017-10-31T04:22:24.961Z,5.60
2017-10-31T04:22:51.752Z,3.80
2017-10-31T04:23:51.854Z,3.80
2017-10-31T04:24:51.763Z,4.50
2017-10-31T04:24:57.248Z,5.50
2017-10-31T04:25:51.869Z,4.20
2017-10-31T04:26:51.772Z,4.50
2017-10-31T04:27:26.332Z,5.50
2017-10-31T04:27:51.889Z,3.90
2017-10-31T04:28:51.785Z,4.10
2017-10-31T04:29:51.896Z,4.10
2017-10-31T04:29:54.965Z,6.03
2017-10-31T04:30:51.795Z,4.70
2017-10-31T04:31:52.832Z,4.00
2017-10-31T04:32:25.176Z,5.60
2017-10-31T04:32:51.798Z,4.40
2017-10-31T04:33:51.922Z,4.80
2017-10-31T04:34:51.810Z,4.30
2017-10-31T04:34:57.474Z,6.30
2017-10-31T04:35:51.935Z,4.70
2017-10-31T04:36:51.819Z,4.40
2017-10-31T04:37:25.988Z,6.40
2017-10-31T04:37:51.950Z,5.10
2017-10-31T04:38:51.828Z,5.50
2017-10-31T04:39:51.966Z,4.90
2017-10-31T04:39:54.824Z,5.10
2017-10-31T04:40:51.842Z,5.20
2017-10-31T04:41:53.930Z,4.80
2017-10-31T04:42:25.096Z,4.47
2017-10-31T04:42:51.848Z,4.80
2017-10-31T04:43:51.896Z,5.00
2017-10-31T04:44:51.860Z,5.20
2017-10-31T04:44:54.544Z,5.33
2017-10-31T04:45:52.005Z,5.40
2017-10-31T04:46:51.866Z,5.30
2017-10-31T04:47:23.206Z,5.40
2017-10-31T04:47:51.916Z,5.20
2017-10-31T04:48:51.878Z,5.20
2017-10-31T04:49:51.932Z,5.10
2017-10-31T04:49:52.038Z,5.53
2017-10-31T04:50:51.885Z,5.30
2017-10-31T04:51:51.941Z,5.60
2017-10-31T04:52:21.169Z,5.30
2017-10-31T04:52:51.899Z,5.20
2017-10-31T04:53:51.970Z,5.20
2017-10-31T04:54:51.907Z,5.10
2017-10-31T04:54:55.468Z,4.63
2017-10-31T04:55:51.969Z,5.40
2017-10-31T04:56:51.917Z,5.30
2017-10-31T04:57:24.994Z,5.03
2017-10-31T04:57:51.923Z,5.30
2017-10-31T04:58:51.929Z,4.90
2017-10-31T04:59:51.938Z,5.40
2017-10-31T04:59:54.694Z,4.83
2017-10-31T05:00:51.945Z,5.40
2017-10-31T05:01:51.946Z,5.20
2017-10-31T05:02:22.920Z,4.97
2017-10-31T05:02:51.949Z,5.30
2017-10-31T05:03:53.046Z,5.60
2017-10-31T05:04:51.961Z,5.30
2017-10-31T05:04:53.811Z,4.87
2017-10-31T05:05:51.963Z,5.00
2017-10-31T05:06:53.068Z,5.50
2017-10-31T05:07:25.290Z,4.83
2017-10-31T05:07:51.974Z,5.10
2017-10-31T05:08:51.974Z,4.60
2017-10-31T05:09:52.067Z,5.00
2017-10-31T05:09:52.957Z,5.27
2017-10-31T05:10:51.990Z,5.40
2017-10-31T05:11:52.084Z,5.80
2017-10-31T05:12:23.081Z,5.87
2017-10-31T05:12:52.000Z,5.60
2017-10-31T05:13:52.009Z,5.10
2017-10-31T05:14:50.653Z,4.33
2017-10-31T05:14:52.016Z,4.60
2017-10-31T05:15:52.105Z,5.60
2017-10-31T05:16:52.015Z,5.00
2017-10-31T05:17:18.199Z,5.27
2017-10-31T05:17:52.031Z,5.40
2017-10-31T05:18:54.661Z,5.20
2017-10-31T05:19:45.819Z,4.70
2017-10-31T05:19:52.027Z,5.40
2017-10-31T05:20:52.034Z,5.20
2017-10-31T05:21:52.046Z,5.20
2017-10-31T05:22:14.132Z,5.40
2017-10-31T05:22:52.048Z,4.90
2017-10-31T05:23:53.158Z,5.20
2017-10-31T05:24:42.740Z,4.90
2017-10-31T05:24:52.052Z,5.20
2017-10-31T05:25:52.250Z,6.30
2017-10-31T05:26:52.066Z,5.20
2017-10-31T05:27:10.317Z,4.70
2017-10-31T05:27:52.161Z,5.00
2017-10-31T05:28:52.078Z,5.40
2017-10-31T05:29:38.732Z,5.10
2017-10-31T05:29:52.183Z,5.90
2017-10-31T05:30:52.077Z,5.90
2017-10-31T05:31:52.188Z,5.70
2017-10-31T05:32:06.604Z,5.23
2017-10-31T05:32:52.094Z,5.30
2017-10-31T05:33:52.097Z,5.20
2017-10-31T05:34:34.617Z,5.60
2017-10-31T05:34:52.102Z,5.70
2017-10-31T05:35:52.107Z,5.90
2017-10-31T05:36:52.130Z,5.70
2017-10-31T05:37:04.025Z,4.97
2017-10-31T05:37:52.116Z,5.60
2017-10-31T05:38:52.125Z,5.60
2017-10-31T05:39:32.598Z,5.60
2017-10-31T05:39:52.129Z,5.50
2017-10-31T05:40:52.128Z,5.70
2017-10-31T05:41:52.133Z,5.40
2017-10-31T05:42:01.309Z,5.37
2017-10-31T05:42:52.138Z,5.10
2017-10-31T05:43:52.148Z,6.10
2017-10-31T05:44:30.095Z,4.90
2017-10-31T05:44:52.154Z,5.30
2017-10-31T05:45:52.174Z,5.40
2017-10-31T05:46:52.161Z,4.90
2017-10-31T05:47:00.577Z,4.60
2017-10-31T05:47:52.165Z,5.60
2017-10-31T05:48:52.164Z,5.00
2017-10-31T05:49:29.571Z,5.50
2017-10-31T05:49:52.176Z,5.80
2017-10-31T05:50:52.178Z,5.40
2017-10-31T05:51:52.236Z,5.10
2017-10-31T05:51:59.704Z,4.90
2017-10-31T05:52:52.196Z,5.60
2017-10-31T05:53:52.247Z,5.60
2017-10-31T05:54:30.458Z,4.80
2017-10-31T05:54:52.197Z,5.90
2017-10-31T05:55:52.252Z,5.40
2017-10-31T05:56:52.209Z,6.40
2017-10-31T05:57:00.651Z,5.10
2017-10-31T05:57:52.262Z,5.70
2017-10-31T05:58:52.230Z,6.60
2017-10-31T05:59:31.980Z,5.10
2017-10-31T05:59:52.277Z,5.40
2017-10-31T06:00:52.228Z,6.10
2017-10-31T06:01:52.292Z,6.10
2017-10-31T06:02:05.431Z,4.60
2017-10-31T06:02:52.240Z,5.20
2017-10-31T06:03:52.305Z,5.90
2017-10-31T06:04:33.839Z,4.73
2017-10-31T06:04:52.246Z,5.70
2017-10-31T06:05:52.317Z,6.00
2017-10-31T06:06:52.258Z,6.40
2017-10-31T06:07:02.879Z,4.27
2017-10-31T06:07:52.337Z,6.30
2017-10-31T06:08:52.263Z,6.30
2017-10-31T06:09:32.371Z,5.07
2017-10-31T06:09:52.345Z,6.70
2017-10-31T06:10:52.276Z,6.30
2017-10-31T06:11:52.358Z,6.10
2017-10-31T06:12:01.900Z,4.90
2017-10-31T06:12:52.286Z,6.20
2017-10-31T06:13:52.371Z,5.60
2017-10-31T06:14:34.716Z,5.03
2017-10-31T06:14:52.291Z,6.50
2017-10-31T06:15:52.385Z,6.40
2017-10-31T06:16:52.310Z,6.60
2017-10-31T06:17:05.303Z,4.80
2017-10-31T06:17:52.397Z,6.80
2017-10-31T06:18:52.316Z,6.70
2017-10-31T06:19:36.310Z,4.77
2017-10-31T06:19:52.416Z,6.60
2017-10-31T06:20:52.321Z,6.60
2017-10-31T06:21:52.425Z,6.20
2017-10-31T06:22:12.707Z,5.33
2017-10-31T06:22:52.330Z,7.00
2017-10-31T06:23:52.457Z,6.50
2017-10-31T06:24:47.236Z,5.13
2017-10-31T06:24:52.385Z,6.40
2017-10-31T06:25:52.456Z,6.50
2017-10-31T06:26:52.362Z,6.20
2017-10-31T06:27:20.424Z,5.20
2017-10-31T06:27:53.491Z,7.20
2017-10-31T06:28:52.361Z,6.80
2017-10-31T06:29:52.476Z,6.80
2017-10-31T06:29:53.685Z,5.60
2017-10-31T06:30:52.371Z,6.70
2017-10-31T06:31:52.492Z,6.80
2017-10-31T06:32:22.812Z,4.70
2017-10-31T06:32:52.384Z,6.70
2017-10-31T06:33:52.505Z,6.80
2017-10-31T06:34:50.423Z,4.87
2017-10-31T06:34:52.391Z,6.70
2017-10-31T06:35:52.487Z,6.70
2017-10-31T06:36:52.397Z,6.50
2017-10-31T06:37:17.991Z,4.67
2017-10-31T06:37:52.532Z,7.00
2017-10-31T06:38:52.408Z,6.80
2017-10-31T06:39:45.613Z,5.13
2017-10-31T06:39:52.544Z,6.40
2017-10-31T06:40:52.420Z,7.10
2017-10-31T06:41:52.558Z,6.20
2017-10-31T06:42:13.721Z,4.83
2017-10-31T06:42:52.427Z,6.40
2017-10-31T06:43:52.571Z,6.60
2017-10-31T06:44:42.710Z,4.00
2017-10-31T06:44:52.437Z,6.10
2017-10-31T06:45:52.584Z,6.30
2017-10-31T06:46:52.442Z,6.40
2017-10-31T06:47:10.392Z,4.30
2017-10-31T06:47:52.492Z,6.90
2017-10-31T06:48:52.458Z,6.70
2017-10-31T06:49:38.244Z,4.73
2017-10-31T06:49:52.510Z,6.40
2017-10-31T06:50:52.462Z,7.30
2017-10-31T06:51:52.519Z,7.50
2017-10-31T06:52:06.263Z,4.80
2017-10-31T06:52:52.475Z,7.10
2017-10-31T06:53:52.640Z,7.80
2017-10-31T06:54:34.468Z,4.80
2017-10-31T06:54:52.483Z,6.90
2017-10-31T06:55:52.551Z,6.60
2017-10-31T06:56:52.502Z,7.40
2017-10-31T06:57:02.313Z,5.00
2017-10-31T06:57:52.581Z,7.10
2017-10-31T06:58:52.503Z,7.30
2017-10-31T06:59:31.910Z,4.97
2017-10-31T06:59:52.576Z,7.60
2017-10-31T07:00:52.512Z,6.70
2017-10-31T07:01:52.585Z,7.40
2017-10-31T07:02:02.081Z,4.47
2017-10-31T07:02:52.523Z,6.60
2017-10-31T07:03:52.597Z,7.10
2017-10-31T07:04:32.217Z,4.40
2017-10-31T07:04:52.532Z,6.30
2017-10-31T07:05:52.614Z,6.10
2017-10-31T07:06:52.541Z,6.90
2017-10-31T07:07:02.936Z,4.40
2017-10-31T07:07:52.627Z,6.80
2017-10-31T07:08:52.561Z,7.50
2017-10-31T07:09:32.457Z,4.20
2017-10-31T07:09:52.590Z,7.00
2017-10-31T07:10:52.563Z,7.20
2017-10-31T07:11:52.654Z,7.00
2017-10-31T07:12:01.806Z,5.10
2017-10-31T07:12:52.569Z,7.40
2017-10-31T07:13:53.702Z,7.50
2017-10-31T07:14:31.037Z,4.20
2017-10-31T07:14:52.585Z,7.70
2017-10-31T07:15:52.677Z,7.50
2017-10-31T07:16:52.590Z,7.80
2017-10-31T07:17:02.896Z,4.60
2017-10-31T07:17:52.691Z,7.20
2017-10-31T07:18:52.608Z,8.20
2017-10-31T07:19:31.901Z,4.63
2017-10-31T07:19:52.708Z,8.00
2017-10-31T07:20:52.603Z,7.60
2017-10-31T07:21:52.717Z,7.40
2017-10-31T07:22:07.377Z,5.83
2017-10-31T07:22:52.620Z,7.90
2017-10-31T07:23:52.734Z,8.00
2017-10-31T07:24:36.618Z,5.30
2017-10-31T07:24:52.627Z,7.80
2017-10-31T07:25:52.635Z,8.00
2017-10-31T07:26:52.653Z,7.10
2017-10-31T07:27:06.745Z,4.40
2017-10-31T07:27:52.660Z,8.00
2017-10-31T07:28:52.653Z,8.20
2017-10-31T07:29:36.455Z,4.57
2017-10-31T07:29:52.685Z,7.90
2017-10-31T07:30:52.654Z,7.50
2017-10-31T07:31:52.656Z,8.90
2017-10-31T07:32:07.602Z,6.17
2017-10-31T07:32:52.665Z,7.60
2017-10-31T07:33:52.668Z,8.30
2017-10-31T07:34:36.941Z,6.07
2017-10-31T07:34:52.678Z,8.20
2017-10-31T07:35:52.716Z,7.40
2017-10-31T07:36:52.689Z,7.90
2017-10-31T07:37:06.890Z,7.53
2017-10-31T07:37:52.721Z,9.00
2017-10-31T07:38:52.705Z,7.80
2017-10-31T07:39:35.622Z,8.27
2017-10-31T07:39:52.701Z,7.90
2017-10-31T07:40:52.760Z,7.20
2017-10-31T07:41:52.712Z,7.60
2017-10-31T07:42:04.480Z,8.30
2017-10-31T07:42:52.755Z,7.70
2017-10-31T07:43:52.720Z,7.60
2017-10-31T07:44:32.889Z,5.60
2017-10-31T07:44:52.725Z,8.30
2017-10-31T07:45:52.789Z,7.40
2017-10-31T07:46:52.838Z,6.90
2017-10-31T07:47:03.161Z,5.70
2017-10-31T07:47:52.747Z,7.50
2017-10-31T07:48:52.900Z,8.00
2017-10-31T07:49:32.565Z,11.73
2017-10-31T07:49:52.755Z,7.40
2017-10-31T07:50:52.819Z,8.50
2017-10-31T07:51:52.754Z,7.40
2017-10-31T07:52:03.712Z,6.87
2017-10-31T07:52:52.761Z,7.30
2017-10-31T07:53:52.768Z,6.60
2017-10-31T07:54:33.034Z,5.07
2017-10-31T07:54:52.765Z,7.20
2017-10-31T07:55:52.774Z,7.60
2017-10-31T07:56:52.871Z,7.70
2017-10-31T07:57:03.354Z,5.80
2017-10-31T07:57:52.782Z,7.40
2017-10-31T07:58:52.796Z,8.10
2017-10-31T07:59:34.294Z,6.13
2017-10-31T07:59:52.799Z,7.40
2017-10-31T08:00:52.796Z,8.00
2017-10-31T08:01:52.804Z,8.10
2017-10-31T08:02:04.215Z,7.20
2017-10-31T08:02:52.815Z,7.30
2017-10-31T08:03:52.816Z,7.10
2017-10-31T08:04:34.006Z,6.27
2017-10-31T08:04:52.817Z,6.90
2017-10-31T08:05:52.844Z,7.50
2017-10-31T08:06:52.849Z,7.50
2017-10-31T08:07:04.773Z,6.67
2017-10-31T08:07:52.832Z,7.90
2017-10-31T08:08:52.845Z,7.50
2017-10-31T08:09:36.198Z,6.30
2017-10-31T08:09:52.835Z,6.60
2017-10-31T08:10:52.844Z,7.70
2017-10-31T08:11:52.853Z,8.40
2017-10-31T08:12:05.091Z,6.00
2017-10-31T08:12:52.858Z,7.50
2017-10-31T08:13:52.862Z,7.50
2017-10-31T08:14:33.711Z,8.83
2017-10-31T08:14:52.868Z,8.10
2017-10-31T08:15:52.980Z,8.40
2017-10-31T08:16:52.882Z,7.60
2017-10-31T08:17:04.057Z,6.60
2017-10-31T08:17:52.994Z,8.00
2017-10-31T08:18:52.889Z,8.40
2017-10-31T08:19:33.993Z,6.30
2017-10-31T08:19:52.905Z,7.10
2017-10-31T08:20:52.897Z,8.60
2017-10-31T08:21:53.417Z,6.80
2017-10-31T08:22:03.312Z,5.93
2017-10-31T08:22:52.908Z,5.70
2017-10-31T08:23:52.935Z,7.20
2017-10-31T08:24:35.585Z,6.13
2017-10-31T08:24:52.912Z,6.90
2017-10-31T08:25:52.950Z,9.00
2017-10-31T08:26:52.917Z,8.90
2017-10-31T08:27:04.471Z,5.20
2017-10-31T08:27:52.968Z,7.50
2017-10-31T08:28:52.925Z,8.10
2017-10-31T08:29:34.113Z,5.70
2017-10-31T08:29:52.934Z,8.00
2017-10-31T08:30:52.940Z,7.40
2017-10-31T08:31:52.948Z,7.60
2017-10-31T08:32:03.636Z,6.20
2017-10-31T08:32:52.945Z,8.10
2017-10-31T08:33:52.964Z,7.90
2017-10-31T08:34:32.334Z,5.90
2017-10-31T08:34:52.952Z,8.70
2017-10-31T08:35:52.962Z,9.00
2017-10-31T08:36:52.962Z,8.50
2017-10-31T08:37:01.706Z,5.03
2017-10-31T08:37:52.970Z,7.70
2017-10-31T08:38:52.974Z,9.00
2017-10-31T08:39:33.930Z,4.63
2017-10-31T08:39:52.976Z,9.50
2017-10-31T08:40:52.986Z,8.50
2017-10-31T08:41:53.157Z,9.30
2017-10-31T08:42:03.545Z,4.90
2017-10-31T08:42:52.996Z,8.50
2017-10-31T08:43:53.067Z,8.70
2017-10-31T08:44:31.966Z,5.13
2017-10-31T08:44:53.008Z,8.00
2017-10-31T08:45:53.014Z,6.70
2017-10-31T08:46:53.028Z,7.90
2017-10-31T08:47:03.525Z,5.50
2017-10-31T08:47:53.030Z,9.20
2017-10-31T08:48:53.027Z,8.20
2017-10-31T08:49:33.105Z,6.70
2017-10-31T08:49:53.029Z,10.60
2017-10-31T08:50:53.037Z,9.50
2017-10-31T08:51:53.035Z,8.60
2017-10-31T08:52:07.738Z,5.47
2017-10-31T08:52:53.041Z,8.90
2017-10-31T08:53:53.046Z,9.20
2017-10-31T08:54:39.234Z,5.67
2017-10-31T08:54:53.049Z,8.80
2017-10-31T08:55:53.055Z,8.70
2017-10-31T08:56:53.064Z,9.30
2017-10-31T08:57:08.687Z,5.47
2017-10-31T08:57:53.069Z,7.80
2017-10-31T08:58:53.071Z,10.80
2017-10-31T08:59:37.227Z,6.73
2017-10-31T08:59:53.076Z,17.50
2017-10-31T09:00:53.083Z,12.10
2017-10-31T09:01:53.191Z,13.10
2017-10-31T09:02:07.367Z,9.10
2017-10-31T09:02:53.089Z,10.00
2017-10-31T09:03:53.204Z,10.20
2017-10-31T09:04:36.074Z,11.37
2017-10-31T09:04:53.151Z,8.90
2017-10-31T09:05:53.104Z,8.90
2017-10-31T09:06:53.112Z,9.00
2017-10-31T09:07:06.808Z,6.80
2017-10-31T09:07:53.144Z,6.80
2017-10-31T09:08:53.295Z,8.70
2017-10-31T09:09:38.442Z,6.70
2017-10-31T09:09:53.121Z,8.40
2017-10-31T09:10:53.153Z,9.40
2017-10-31T09:11:53.132Z,8.50
2017-10-31T09:12:09.594Z,7.57
2017-10-31T09:12:53.141Z,9.20
2017-10-31T09:13:53.143Z,8.70
2017-10-31T09:14:39.720Z,6.60
2017-10-31T09:14:53.150Z,8.60
2017-10-31T09:15:53.157Z,10.00
2017-10-31T09:16:53.167Z,9.80
2017-10-31T09:17:08.511Z,6.53
2017-10-31T09:17:53.158Z,9.10
2017-10-31T09:18:53.165Z,9.90
2017-10-31T09:19:39.253Z,6.00
2017-10-31T09:19:53.167Z,9.40
2017-10-31T09:20:53.220Z,9.10
2017-10-31T09:21:53.177Z,10.20
2017-10-31T09:22:08.927Z,7.10
2017-10-31T09:22:53.225Z,9.80
2017-10-31T09:23:53.189Z,9.20
2017-10-31T09:24:40.716Z,6.33
2017-10-31T09:24:53.298Z,8.00
2017-10-31T09:25:53.201Z,9.70
2017-10-31T09:26:54.254Z,8.90
2017-10-31T09:27:10.728Z,8.00
2017-10-31T09:27:53.209Z,10.00
2017-10-31T09:28:53.221Z,9.40
2017-10-31T09:29:40.464Z,7.50
2017-10-31T09:29:53.218Z,9.50
2017-10-31T09:30:53.235Z,10.40
2017-10-31T09:31:53.229Z,10.70